Terminal Aerodrome Forecast
Issued by NWS

Home | Current Version | Previous Version | Text Only | Print | Product List | Glossary On
Versions: 1 2 3 4 5 6 7 8 9 10 11 12 13
000
FTUS43 KICT 032320
TAFRSL
TAF
KRSL 032320Z 0400/0424 17020G28KT P6SM BKN150
     FM040100 17015G22KT P6SM BKN150
     FM041500 19019G28KT P6SM SCT200=

USA.gov is the U.S. government's official web portal to all federal, state and local government web resources and services.